createdAt,value
2018-09-10T00:00:57.449Z,15.19
2018-09-10T00:01:57.445Z,15.17
2018-09-10T00:02:57.440Z,15.13
2018-09-10T00:03:57.433Z,15.09
2018-09-10T00:04:57.435Z,15.08
2018-09-10T00:05:57.431Z,15.02
2018-09-10T00:06:57.451Z,14.99
2018-09-10T00:07:57.423Z,14.91
2018-09-10T00:08:57.423Z,14.88
2018-09-10T00:09:57.419Z,14.83
2018-09-10T00:10:57.410Z,14.69
2018-09-10T00:11:57.415Z,14.74
2018-09-10T00:12:57.405Z,14.65
2018-09-10T00:13:57.407Z,14.61
2018-09-10T00:14:57.397Z,14.62
2018-09-10T00:15:57.395Z,14.54
2018-09-10T00:16:57.390Z,14.57
2018-09-10T00:17:57.387Z,14.54
2018-09-10T00:18:57.382Z,14.47
2018-09-10T00:19:57.383Z,14.39
2018-09-10T00:20:57.379Z,14.44
2018-09-10T00:21:57.376Z,14.46
2018-09-10T00:22:57.371Z,14.46
2018-09-10T00:23:57.367Z,14.44
2018-09-10T00:24:57.369Z,14.46
2018-09-10T00:25:57.360Z,14.60
2018-09-10T00:26:57.357Z,14.57
2018-09-10T00:27:57.352Z,14.54
2018-09-10T00:28:57.354Z,14.54
2018-09-10T00:29:57.347Z,14.60
2018-09-10T00:30:57.338Z,14.50
2018-09-10T00:31:57.336Z,14.56
2018-09-10T00:32:57.332Z,14.39
2018-09-10T00:33:57.328Z,14.44
2018-09-10T00:34:57.327Z,14.34
2018-09-10T00:35:57.319Z,14.28
2018-09-10T00:36:57.316Z,14.28
2018-09-10T00:37:57.311Z,14.37
2018-09-10T00:38:57.329Z,14.31
2018-09-10T00:39:57.305Z,14.27
2018-09-10T00:40:57.304Z,14.14
2018-09-10T00:41:57.298Z,14.16
2018-09-10T00:42:57.291Z,14.14
2018-09-10T00:43:57.291Z,14.09
2018-09-10T00:44:57.290Z,14.17
2018-09-10T00:45:57.282Z,14.10
2018-09-10T00:46:57.281Z,14.12
2018-09-10T00:47:57.278Z,14.14
2018-09-10T00:48:57.272Z,14.13
2018-09-10T00:49:57.271Z,14.12
2018-09-10T00:50:57.265Z,14.09
2018-09-10T00:51:57.264Z,14.13
2018-09-10T00:52:57.254Z,14.02
2018-09-10T00:53:57.253Z,14.06
2018-09-10T00:54:57.247Z,13.99
2018-09-10T00:55:57.248Z,13.98
2018-09-10T00:56:57.248Z,13.98
2018-09-10T00:57:57.245Z,13.96
2018-09-10T00:58:57.236Z,13.95
2018-09-10T00:59:57.232Z,13.95
2018-09-10T01:00:57.230Z,14.10
2018-09-10T01:01:57.224Z,14.07
2018-09-10T01:02:57.218Z,14.07
2018-09-10T01:03:57.219Z,14.01
2018-09-10T01:04:57.211Z,14.04
2018-09-10T01:05:57.212Z,14.06
2018-09-10T01:06:57.205Z,13.96
2018-09-10T01:07:57.192Z,13.95
2018-09-10T01:08:57.209Z,13.95
2018-09-10T01:09:57.192Z,13.94
2018-09-10T01:10:57.192Z,13.95
2018-09-10T01:11:57.187Z,14.02
2018-09-10T01:12:57.181Z,14.04
2018-09-10T01:13:57.181Z,14.07
2018-09-10T01:14:57.174Z,14.13
2018-09-10T01:15:57.172Z,14.13
2018-09-10T01:16:57.165Z,14.17
2018-09-10T01:17:57.162Z,14.21
2018-09-10T01:18:57.159Z,14.16
2018-09-10T01:19:57.153Z,14.12
2018-09-10T01:20:57.153Z,14.19
2018-09-10T01:21:57.147Z,14.14
2018-09-10T01:22:57.141Z,14.10
2018-09-10T01:23:57.138Z,14.06
2018-09-10T01:24:57.132Z,14.04
2018-09-10T01:25:57.134Z,13.96
2018-09-10T01:26:57.126Z,13.91
2018-09-10T01:27:57.125Z,13.91
2018-09-10T01:28:57.132Z,13.84
2018-09-10T01:29:57.115Z,13.81
2018-09-10T02:06:58.854Z,13.41
2018-09-10T02:07:58.823Z,13.32
2018-09-10T02:09:51.813Z,13.33
2018-09-10T02:10:51.778Z,13.32
2018-09-10T02:12:44.766Z,13.17
2018-09-10T02:13:44.780Z,13.24
2018-09-10T02:15:37.635Z,13.12
2018-09-10T02:16:37.615Z,13.07
2018-09-10T02:18:30.570Z,12.96
2018-09-10T02:19:30.553Z,12.77
2018-09-10T02:21:23.518Z,12.60
2018-09-10T02:22:23.506Z,12.52
2018-09-10T02:24:16.481Z,12.63
2018-09-10T02:25:16.460Z,12.54
2018-09-10T02:27:09.431Z,12.63
2018-09-10T02:28:09.421Z,12.62
2018-09-10T02:30:02.398Z,12.59
2018-09-10T02:31:02.372Z,12.57
2018-09-10T02:32:55.351Z,12.56
2018-09-10T02:33:55.328Z,12.63
2018-09-10T02:35:48.282Z,12.62
2018-09-10T02:36:48.277Z,12.56
2018-09-10T02:38:41.347Z,12.56
2018-09-10T02:39:41.234Z,12.66
2018-09-10T02:41:34.197Z,12.69
2018-09-10T02:42:34.190Z,12.71
2018-09-10T02:44:27.170Z,12.81
2018-09-10T02:45:27.148Z,12.85
2018-09-10T02:47:20.107Z,12.95
2018-09-10T02:48:20.099Z,12.87
2018-09-10T02:50:13.081Z,12.88
2018-09-10T02:51:13.053Z,12.88
2018-09-10T02:53:06.025Z,12.88
2018-09-10T02:54:06.004Z,12.87
2018-09-10T02:55:58.983Z,12.85
2018-09-10T02:56:58.958Z,12.79
2018-09-10T02:58:51.910Z,12.81
2018-09-10T02:59:51.887Z,12.75
2018-09-10T03:01:44.806Z,12.70
2018-09-10T03:02:44.781Z,12.64
2018-09-10T03:04:37.746Z,12.63
2018-09-10T03:05:37.726Z,12.60
2018-09-10T03:07:30.656Z,12.59
2018-09-10T03:08:30.642Z,12.54
2018-09-10T03:10:23.551Z,12.56
2018-09-10T03:11:23.526Z,12.54
2018-09-10T03:13:16.503Z,12.71
2018-09-10T03:14:16.480Z,12.67
2018-09-10T03:16:09.454Z,12.77
2018-09-10T03:17:09.433Z,12.77
2018-09-10T03:19:02.408Z,12.71
2018-09-10T03:20:02.391Z,12.74
2018-09-10T03:21:55.448Z,12.70
2018-09-10T03:22:55.437Z,12.57
2018-09-10T03:24:48.425Z,12.60
2018-09-10T03:25:48.403Z,12.52
2018-09-10T03:27:41.326Z,12.51
2018-09-10T03:28:41.304Z,12.29
2018-09-10T03:30:34.232Z,12.21
2018-09-10T03:31:34.209Z,12.06
2018-09-10T03:33:27.193Z,12.11
2018-09-10T03:34:27.171Z,12.12
2018-09-10T03:36:20.140Z,12.11
2018-09-10T03:37:20.121Z,12.12
2018-09-10T03:39:13.056Z,12.15
2018-09-10T03:40:13.037Z,12.16
2018-09-10T03:42:05.938Z,12.24
2018-09-10T03:43:05.924Z,12.33
2018-09-10T03:44:58.899Z,12.30
2018-09-10T03:45:58.876Z,12.30
2018-09-10T03:47:51.797Z,12.44
2018-09-10T03:48:51.786Z,12.41
2018-09-10T03:50:44.712Z,12.39
2018-09-10T03:51:44.690Z,12.45
2018-09-10T03:52:44.690Z,12.54
2018-09-10T03:53:44.683Z,12.41
2018-09-10T03:54:44.681Z,12.37
2018-09-10T03:55:44.671Z,12.44
2018-09-10T03:56:44.672Z,12.49
2018-09-10T03:57:44.665Z,12.51
2018-09-10T03:58:44.662Z,12.54
2018-09-10T03:59:44.657Z,12.66
2018-09-10T04:00:44.657Z,12.74
2018-09-10T04:01:44.654Z,12.81
2018-09-10T04:02:44.643Z,12.99
2018-09-10T04:03:44.640Z,13.02
2018-09-10T04:04:44.652Z,12.99
2018-09-10T04:05:44.635Z,13.02
2018-09-10T04:06:44.627Z,12.97
2018-09-10T04:07:44.629Z,12.89
2018-09-10T04:08:44.627Z,12.92
2018-09-10T04:09:44.618Z,12.96
2018-09-10T04:10:44.615Z,12.85
2018-09-10T04:11:44.609Z,12.95
2018-09-10T04:12:44.608Z,12.93
2018-09-10T04:13:44.608Z,12.88
2018-09-10T04:14:44.599Z,12.97
2018-09-10T04:15:44.598Z,12.82
2018-09-10T04:16:44.592Z,12.97
2018-09-10T04:17:44.591Z,13.03
2018-09-10T04:18:44.585Z,13.00
2018-09-10T04:19:44.579Z,13.07
2018-09-10T04:20:44.574Z,13.12
2018-09-10T04:21:44.575Z,13.06
2018-09-10T04:22:44.569Z,12.99
2018-09-10T04:23:44.565Z,13.02
2018-09-10T04:24:44.564Z,12.95
2018-09-10T04:25:44.564Z,12.97
2018-09-10T04:26:44.557Z,12.93
2018-09-10T04:27:44.549Z,12.97
2018-09-10T04:28:44.554Z,12.96
2018-09-10T04:29:44.544Z,13.03
2018-09-10T04:30:44.539Z,12.99
2018-09-10T04:31:44.532Z,13.03
2018-09-10T04:32:44.537Z,13.04
2018-09-10T04:33:44.527Z,12.89
2018-09-10T04:34:44.532Z,12.88
2018-09-10T04:35:44.536Z,12.99
2018-09-10T04:36:44.523Z,12.87
2018-09-10T04:37:44.518Z,12.89
2018-09-10T04:38:44.518Z,12.81
2018-09-10T04:39:44.514Z,12.82
2018-09-10T04:40:44.503Z,12.79
2018-09-10T04:41:44.503Z,12.84
2018-09-10T04:42:44.499Z,12.78
2018-09-10T04:43:44.514Z,12.77
2018-09-10T04:44:44.496Z,12.78
2018-09-10T04:45:44.487Z,12.78
2018-09-10T04:46:44.478Z,12.75
2018-09-10T04:47:44.477Z,12.71
2018-09-10T04:48:44.476Z,12.75
2018-09-10T04:49:44.523Z,12.81
2018-09-10T04:50:44.468Z,12.78
2018-09-10T04:51:44.466Z,12.79
2018-09-10T04:52:44.467Z,12.74
2018-09-10T04:53:44.472Z,12.75
2018-09-10T04:54:44.454Z,12.75
2018-09-10T04:55:44.444Z,12.81
2018-09-10T04:56:44.438Z,12.75
2018-09-10T04:57:44.441Z,12.85
2018-09-10T04:58:44.430Z,12.84
2018-09-10T04:59:44.428Z,12.82
2018-09-10T05:00:44.429Z,12.88
2018-09-10T05:01:44.425Z,12.84
2018-09-10T05:02:44.410Z,12.89
2018-09-10T05:03:44.413Z,12.88
2018-09-10T05:04:44.408Z,12.92
2018-09-10T05:05:44.402Z,12.85
2018-09-10T05:06:44.397Z,12.88
2018-09-10T05:07:44.398Z,12.88
2018-09-10T05:08:44.392Z,12.81
2018-09-10T05:09:44.422Z,12.82
2018-09-10T05:10:44.444Z,12.78
2018-09-10T05:11:44.391Z,12.75
2018-09-10T05:12:44.375Z,12.74
2018-09-10T05:13:44.370Z,12.74
2018-09-10T05:14:44.367Z,12.79
2018-09-10T05:15:44.363Z,12.74
2018-09-10T05:16:44.363Z,12.70
2018-09-10T05:17:44.372Z,12.71
2018-09-10T05:18:44.819Z,12.79
2018-09-10T05:19:44.345Z,12.84
2018-09-10T05:20:44.344Z,12.81
2018-09-10T05:21:44.337Z,12.79
2018-09-10T05:22:44.336Z,12.82
2018-09-10T05:23:44.335Z,12.87
2018-09-10T05:24:44.331Z,12.82
2018-09-10T05:25:44.327Z,12.78
2018-09-10T05:26:44.321Z,12.81
2018-09-10T05:27:44.317Z,12.84
2018-09-10T05:28:44.313Z,12.99
2018-09-10T05:29:44.339Z,13.07
2018-09-10T05:30:44.304Z,13.07
2018-09-10T05:31:44.302Z,13.11
2018-09-10T05:32:44.322Z,13.17
2018-09-10T05:33:44.293Z,13.24
2018-09-10T05:34:44.286Z,13.30
2018-09-10T05:35:44.286Z,13.30
2018-09-10T05:36:44.286Z,13.24
2018-09-10T05:37:44.284Z,13.22
2018-09-10T05:38:44.277Z,13.22
2018-09-10T05:39:44.275Z,13.30
2018-09-10T05:40:44.265Z,13.25
2018-09-10T05:41:44.308Z,13.21
2018-09-10T05:42:44.261Z,13.25
2018-09-10T05:43:44.341Z,13.37
2018-09-10T05:44:44.356Z,13.47
2018-09-10T05:45:44.292Z,13.62
2018-09-10T05:46:44.265Z,13.59
2018-09-10T05:47:44.275Z,13.81
2018-09-10T05:48:44.271Z,13.63
2018-09-10T05:49:44.285Z,13.67
2018-09-10T05:50:44.232Z,13.83
2018-09-10T05:51:44.228Z,13.89
2018-09-10T05:52:44.232Z,13.95
2018-09-10T05:53:44.226Z,13.99
2018-09-10T05:54:44.218Z,14.04
2018-09-10T05:55:44.218Z,14.16
2018-09-10T05:56:44.215Z,14.34
2018-09-10T05:57:44.212Z,14.47
2018-09-10T05:58:44.209Z,14.56
2018-09-10T05:59:44.201Z,14.74
2018-09-10T06:00:44.204Z,14.74
2018-09-10T06:01:44.199Z,14.90
2018-09-10T06:02:44.194Z,14.84
2018-09-10T06:03:44.195Z,14.99
2018-09-10T06:04:44.201Z,15.17
2018-09-10T06:05:44.185Z,15.33
2018-09-10T06:06:44.198Z,15.39
2018-09-10T06:07:44.181Z,15.49
2018-09-10T06:08:44.214Z,15.72
2018-09-10T06:09:44.175Z,15.78
2018-09-10T06:10:44.170Z,15.86
2018-09-10T06:11:44.173Z,15.93
2018-09-10T06:12:44.164Z,16.11
2018-09-10T06:13:44.158Z,16.22
2018-09-10T06:14:44.159Z,16.30
2018-09-10T06:15:44.157Z,16.49
2018-09-10T06:16:44.244Z,16.56
2018-09-10T06:17:44.150Z,16.73
2018-09-10T06:18:44.147Z,16.67
2018-09-10T06:19:44.145Z,16.58
2018-09-10T06:20:44.145Z,16.63
2018-09-10T06:21:44.142Z,16.62
2018-09-10T06:22:44.139Z,16.73
2018-09-10T06:23:44.135Z,16.88
2018-09-10T06:24:44.136Z,16.96
2018-09-10T06:25:44.132Z,17.07
2018-09-10T06:26:44.132Z,17.18
2018-09-10T06:27:44.130Z,17.14
2018-09-10T06:28:44.124Z,17.20
2018-09-10T06:29:44.122Z,17.18
2018-09-10T06:30:44.117Z,16.95
2018-09-10T06:31:44.122Z,16.98
2018-09-10T06:32:44.116Z,16.99
2018-09-10T06:33:44.112Z,17.15
2018-09-10T06:34:44.110Z,17.28
2018-09-10T06:35:44.109Z,17.46
2018-09-10T06:36:44.105Z,17.51
2018-09-10T06:37:44.103Z,17.63
2018-09-10T06:38:44.107Z,17.78
2018-09-10T06:39:44.104Z,18.02
2018-09-10T06:40:44.106Z,18.03
2018-09-10T06:41:44.099Z,18.15
2018-09-10T06:42:44.097Z,18.13
2018-09-10T06:43:44.096Z,18.36
2018-09-10T06:44:44.090Z,18.47
2018-09-10T06:45:44.089Z,18.70
2018-09-10T06:46:44.089Z,18.64
2018-09-10T06:47:44.131Z,18.62
2018-09-10T06:48:44.102Z,18.52
2018-09-10T06:49:44.090Z,18.57
2018-09-10T06:50:44.168Z,18.50
2018-09-10T06:51:44.085Z,18.67
2018-09-10T06:52:44.081Z,19.08
2018-09-10T06:53:44.078Z,19.40
2018-09-10T06:54:44.078Z,19.42
2018-09-10T06:55:44.076Z,19.65
2018-09-10T06:56:44.098Z,19.69
2018-09-10T06:57:44.073Z,19.61
2018-09-10T06:58:44.075Z,19.54
2018-09-10T06:59:44.074Z,19.57
2018-09-10T07:00:44.070Z,19.61
2018-09-10T07:01:44.074Z,20.00
2018-09-10T07:02:44.074Z,20.30
2018-09-10T07:03:44.069Z,20.71
2018-09-10T07:04:44.080Z,21.11
2018-09-10T07:05:44.071Z,21.36
2018-09-10T07:06:44.070Z,21.72
2018-09-10T07:07:44.073Z,22.49
2018-09-10T07:08:44.067Z,22.56
2018-09-10T07:09:44.088Z,22.67
2018-09-10T07:10:44.071Z,22.86
2018-09-10T07:11:44.072Z,22.53
2018-09-10T07:12:44.107Z,22.57
2018-09-10T07:13:44.084Z,22.86
2018-09-10T07:14:44.082Z,23.53
2018-09-10T07:15:44.089Z,23.49
2018-09-10T07:16:44.091Z,23.94
2018-09-10T07:17:44.096Z,24.56
2018-09-10T07:18:44.237Z,24.63
2018-09-10T07:19:44.105Z,24.41
2018-09-10T07:20:44.119Z,24.16
2018-09-10T07:21:44.132Z,23.98
2018-09-10T07:22:44.123Z,24.61
2018-09-10T07:23:44.130Z,24.53
2018-09-10T07:24:44.134Z,24.42
2018-09-10T07:25:44.142Z,24.82
2018-09-10T07:26:44.146Z,25.31
2018-09-10T07:27:44.155Z,25.10
2018-09-10T07:28:44.165Z,25.27
2018-09-10T07:29:44.169Z,25.44
2018-09-10T07:30:44.175Z,25.31
2018-09-10T07:31:44.179Z,25.44
2018-09-10T07:32:44.196Z,25.69
2018-09-10T07:33:44.197Z,25.57
2018-09-10T07:34:44.200Z,25.12
2018-09-10T07:35:44.209Z,24.73
2018-09-10T07:36:44.219Z,25.47
2018-09-10T07:37:44.226Z,25.59
2018-09-10T07:38:44.235Z,24.79
2018-09-10T07:39:44.244Z,24.64
2018-09-10T07:40:44.251Z,24.42
2018-09-10T07:41:44.259Z,24.16
2018-09-10T07:42:44.265Z,24.31
2018-09-10T07:43:44.289Z,23.53
2018-09-10T07:44:44.287Z,23.32
2018-09-10T07:45:44.294Z,23.89
2018-09-10T07:46:44.300Z,24.44
2018-09-10T07:47:44.309Z,24.44
2018-09-10T07:48:44.325Z,24.37
2018-09-10T07:49:44.357Z,24.79
2018-09-10T07:50:44.357Z,24.95
2018-09-10T07:51:44.366Z,24.38
2018-09-10T07:52:44.377Z,24.16
2018-09-10T07:53:44.371Z,24.47
2018-09-10T07:54:44.410Z,25.28
2018-09-10T07:55:44.383Z,24.73
2018-09-10T07:56:44.390Z,25.02
2018-09-10T07:57:44.399Z,24.57
2018-09-10T07:58:44.410Z,24.61
2018-09-10T07:59:44.424Z,25.07
2018-09-10T08:00:44.490Z,25.57
2018-09-10T08:01:44.439Z,26.29
2018-09-10T08:02:44.453Z,26.67
2018-09-10T08:03:44.459Z,26.39
2018-09-10T08:04:44.476Z,26.86
2018-09-10T08:05:44.481Z,27.46
2018-09-10T08:06:44.490Z,27.71
2018-09-10T08:07:44.502Z,26.46
2018-09-10T08:08:44.526Z,25.71
2018-09-10T08:09:44.581Z,25.68
2018-09-10T08:10:44.532Z,25.44
2018-09-10T08:11:44.544Z,25.43
2018-09-10T08:12:44.556Z,25.84
2018-09-10T08:13:44.608Z,25.59
2018-09-10T08:14:44.576Z,26.04
2018-09-10T08:15:44.585Z,26.22
2018-09-10T08:16:44.621Z,26.44
2018-09-10T08:17:44.606Z,26.86
2018-09-10T08:18:44.619Z,27.74
2018-09-10T08:19:44.647Z,28.26
2018-09-10T08:20:44.638Z,28.22
2018-09-10T08:21:44.648Z,28.97
2018-09-10T08:22:44.662Z,29.45
2018-09-10T08:23:44.674Z,29.11
2018-09-10T08:24:44.687Z,28.38
2018-09-10T08:25:44.698Z,28.66
2018-09-10T08:26:44.714Z,28.82
2018-09-10T08:27:44.720Z,29.13
2018-09-10T08:28:44.733Z,29.56
2018-09-10T08:29:44.750Z,29.78
2018-09-10T08:30:44.756Z,30.15
2018-09-10T08:31:44.766Z,30.19
2018-09-10T08:32:44.780Z,29.93
2018-09-10T08:33:44.804Z,30.40
2018-09-10T08:34:44.809Z,31.30
2018-09-10T08:35:44.816Z,31.18
2018-09-10T08:36:44.842Z,31.17
2018-09-10T08:37:44.841Z,30.84
2018-09-10T08:38:44.851Z,30.84
2018-09-10T08:39:44.868Z,30.80
2018-09-10T08:40:44.882Z,30.75
2018-09-10T08:41:44.922Z,31.11
2018-09-10T08:42:44.941Z,31.38
2018-09-10T08:43:44.913Z,30.71
2018-09-10T08:44:44.936Z,30.37
2018-09-10T08:45:44.960Z,30.57
2018-09-10T08:46:44.956Z,30.36
2018-09-10T08:47:44.969Z,29.47
2018-09-10T08:48:45.047Z,29.57
2018-09-10T08:49:45.102Z,29.99
2018-09-10T08:50:45.012Z,30.21
2018-09-10T08:51:45.020Z,30.74
2018-09-10T08:52:45.038Z,30.29
2018-09-10T08:53:45.047Z,30.21
2018-09-10T08:54:45.350Z,29.99
2018-09-10T08:55:45.258Z,29.82
2018-09-10T08:56:45.135Z,29.94
2018-09-10T08:57:45.099Z,29.94
2018-09-10T08:58:45.117Z,30.64
2018-09-10T08:59:45.134Z,30.75
2018-09-10T09:00:45.141Z,31.24
2018-09-10T09:01:45.200Z,30.99
2018-09-10T09:02:45.200Z,31.62
2018-09-10T09:03:45.242Z,31.06
2018-09-10T09:04:45.251Z,32.15
2018-09-10T09:05:45.212Z,32.35
2018-09-10T09:06:45.227Z,31.55
2018-09-10T09:07:45.239Z,31.31
2018-09-10T09:08:45.280Z,32.27
2018-09-10T09:09:45.270Z,32.39
2018-09-10T09:10:45.279Z,32.36
2018-09-10T09:11:45.299Z,32.99
2018-09-10T09:12:45.311Z,33.20
2018-09-10T09:13:45.323Z,32.03
2018-09-10T09:14:45.356Z,32.47
2018-09-10T09:15:45.350Z,30.59
2018-09-10T09:16:45.367Z,30.18
2018-09-10T09:17:45.380Z,30.74
2018-09-10T09:18:45.402Z,30.12
2018-09-10T09:19:45.408Z,30.15
2018-09-10T09:20:45.424Z,29.45
2018-09-10T09:21:45.446Z,29.41
2018-09-10T09:22:45.456Z,29.71
2018-09-10T09:23:45.472Z,29.47
2018-09-10T09:24:45.484Z,29.71
2018-09-10T09:25:45.494Z,29.87
2018-09-10T09:26:45.509Z,30.94
2018-09-10T09:27:45.541Z,31.39
2018-09-10T09:28:45.540Z,31.42
2018-09-10T09:29:45.607Z,31.77
2018-09-10T09:30:45.577Z,31.99
2018-09-10T09:31:45.584Z,31.73
2018-09-10T09:32:45.598Z,31.21
2018-09-10T09:33:45.612Z,31.82
2018-09-10T09:34:45.636Z,30.75
2018-09-10T09:35:45.646Z,30.37
2018-09-10T09:36:45.666Z,30.03
2018-09-10T09:37:45.678Z,30.52
2018-09-10T09:38:45.687Z,29.86
2018-09-10T09:39:45.710Z,29.86
2018-09-10T09:40:45.727Z,30.11
2018-09-10T09:41:45.745Z,30.15
2018-09-10T09:42:45.754Z,30.36
2018-09-10T09:43:45.773Z,31.01
2018-09-10T09:44:45.781Z,31.31
2018-09-10T09:45:45.793Z,30.84
2018-09-10T09:46:45.803Z,30.76
2018-09-10T09:47:45.830Z,31.21
2018-09-10T09:48:45.850Z,31.58
2018-09-10T09:49:45.856Z,31.58
2018-09-10T09:50:45.869Z,31.85
2018-09-10T09:51:45.884Z,31.12
2018-09-10T09:52:45.892Z,29.81
2018-09-10T09:53:45.909Z,30.57
2018-09-10T09:54:45.923Z,30.81
2018-09-10T09:55:45.937Z,30.30
2018-09-10T09:56:46.021Z,30.59
2018-09-10T09:57:45.969Z,30.62
2018-09-10T09:58:45.987Z,31.01
2018-09-10T09:59:45.997Z,31.65
2018-09-10T10:00:46.014Z,31.67
2018-09-10T10:01:46.029Z,30.99
2018-09-10T10:02:46.044Z,30.78
2018-09-10T10:03:46.056Z,31.24
2018-09-10T10:04:46.077Z,30.89
2018-09-10T10:05:46.090Z,31.13
2018-09-10T10:06:46.104Z,32.03
2018-09-10T10:07:46.125Z,32.52
2018-09-10T10:08:46.133Z,32.88
2018-09-10T10:09:46.151Z,32.58
2018-09-10T10:10:46.160Z,31.73
2018-09-10T10:11:46.262Z,31.09
2018-09-10T10:12:46.196Z,30.71
2018-09-10T10:13:46.212Z,31.12
2018-09-10T10:14:46.228Z,31.58
2018-09-10T10:15:46.242Z,32.37
2018-09-10T10:16:46.255Z,31.77
2018-09-10T10:17:46.270Z,31.20
2018-09-10T10:18:46.282Z,30.99
2018-09-10T10:19:46.302Z,31.28
2018-09-10T10:20:46.317Z,31.17
2018-09-10T10:21:46.340Z,31.23
2018-09-10T10:22:46.344Z,31.13
2018-09-10T10:23:46.361Z,30.37
2018-09-10T10:24:46.379Z,31.24
2018-09-10T10:25:46.392Z,30.64
2018-09-10T10:26:46.406Z,29.84
2018-09-10T10:27:46.418Z,30.64
2018-09-10T10:28:46.441Z,31.48
2018-09-10T10:29:46.453Z,32.22
2018-09-10T10:30:46.469Z,31.23
2018-09-10T10:31:46.482Z,30.90
2018-09-10T10:32:46.499Z,31.40
2018-09-10T10:33:46.513Z,30.65
2018-09-10T10:34:46.525Z,30.86
2018-09-10T10:35:46.545Z,31.31
2018-09-10T10:36:46.557Z,31.46
2018-09-10T10:37:46.587Z,31.46
2018-09-10T10:38:46.584Z,31.96
2018-09-10T10:39:46.633Z,32.03
2018-09-10T10:40:46.615Z,31.85
2018-09-10T10:41:46.629Z,31.39
2018-09-10T10:42:46.643Z,30.94
2018-09-10T10:43:46.660Z,31.39
2018-09-10T10:44:46.670Z,30.31
2018-09-10T10:45:46.688Z,30.65
2018-09-10T10:46:46.699Z,31.17
2018-09-10T10:47:46.718Z,31.27
2018-09-10T10:48:46.729Z,31.93
2018-09-10T10:49:46.747Z,32.17
2018-09-10T10:50:46.754Z,32.27
2018-09-10T10:51:46.773Z,31.91
2018-09-10T10:52:46.784Z,32.49
2018-09-10T10:53:46.823Z,32.21
2018-09-10T10:54:46.809Z,32.33
2018-09-10T10:55:46.825Z,31.62
2018-09-10T10:56:46.845Z,31.48
2018-09-10T10:57:46.854Z,31.85
2018-09-10T10:58:46.874Z,31.46
2018-09-10T10:59:46.883Z,31.42
2018-09-10T11:00:46.898Z,31.24
2018-09-10T11:01:46.912Z,30.49
2018-09-10T11:02:46.924Z,30.62
2018-09-10T11:03:46.993Z,30.27
2018-09-10T11:04:46.949Z,31.04
2018-09-10T11:05:46.969Z,31.02
2018-09-10T11:06:46.978Z,31.62
2018-09-10T11:07:46.992Z,32.32
2018-09-10T11:08:47.001Z,32.29
2018-09-10T11:09:47.017Z,32.27
2018-09-10T11:10:47.032Z,32.24
2018-09-10T11:11:47.039Z,31.62
2018-09-10T11:12:47.054Z,31.43
2018-09-10T11:13:47.076Z,32.15
2018-09-10T11:14:47.083Z,32.76
2018-09-10T11:15:47.094Z,33.22
2018-09-10T11:16:47.149Z,33.53
2018-09-10T11:17:47.125Z,33.07
2018-09-10T11:18:47.146Z,33.15
2018-09-10T11:19:47.148Z,32.17
2018-09-10T11:20:47.157Z,32.14
2018-09-10T11:21:47.177Z,31.93
2018-09-10T11:22:47.193Z,31.31
2018-09-10T11:23:47.201Z,31.17
2018-09-10T11:24:47.216Z,31.30
2018-09-10T11:25:47.226Z,31.33
2018-09-10T11:26:47.241Z,30.80
2018-09-10T11:27:47.262Z,29.43
2018-09-10T11:28:47.267Z,28.84
2018-09-10T11:29:47.275Z,28.38
2018-09-10T11:30:47.290Z,29.08
2018-09-10T11:31:47.299Z,29.07
2018-09-10T11:32:47.317Z,29.04
2018-09-10T11:33:47.322Z,28.44
2018-09-10T11:34:47.340Z,28.63
2018-09-10T11:35:47.349Z,28.68
2018-09-10T11:36:47.363Z,28.87
2018-09-10T11:37:47.373Z,28.73
2018-09-10T11:38:47.379Z,28.88
2018-09-10T11:39:47.394Z,28.87
2018-09-10T11:40:47.402Z,28.56
2018-09-10T11:41:47.410Z,28.95
2018-09-10T11:42:47.462Z,29.38
2018-09-10T11:43:47.433Z,29.50
2018-09-10T11:44:47.452Z,29.25
2018-09-10T11:45:47.450Z,29.23
2018-09-10T11:46:47.460Z,29.47
2018-09-10T11:47:47.471Z,29.25
2018-09-10T11:48:47.479Z,29.03
2018-09-10T11:49:47.492Z,29.40
2018-09-10T11:50:47.498Z,29.20
2018-09-10T11:51:47.505Z,29.26
2018-09-10T11:52:47.516Z,29.13
2018-09-10T11:53:47.532Z,29.07
2018-09-10T11:54:47.540Z,29.52
2018-09-10T11:55:47.606Z,29.81
2018-09-10T11:56:47.556Z,30.16
2018-09-10T11:57:47.564Z,30.15
2018-09-10T11:58:47.574Z,30.07
2018-09-10T11:59:47.582Z,30.40
2018-09-10T12:00:47.591Z,30.52
2018-09-10T12:01:47.669Z,30.94
2018-09-10T12:02:47.611Z,31.24
2018-09-10T12:03:47.620Z,31.28
2018-09-10T12:04:47.628Z,31.04
2018-09-10T12:05:47.650Z,31.05
2018-09-10T12:06:47.645Z,31.01
2018-09-10T12:07:47.662Z,31.20
2018-09-10T12:08:47.662Z,31.43
2018-09-10T12:09:47.672Z,31.96
2018-09-10T12:10:47.706Z,31.96
2018-09-10T12:11:47.697Z,31.40
2018-09-10T12:12:47.704Z,30.83
2018-09-10T12:13:47.720Z,29.84
2018-09-10T12:14:47.731Z,28.66
2018-09-10T12:15:47.742Z,28.68
2018-09-10T12:16:47.760Z,28.62
2018-09-10T12:17:47.765Z,28.40
2018-09-10T12:18:47.774Z,28.50
2018-09-10T12:19:47.785Z,28.46
2018-09-10T12:20:47.793Z,28.47
2018-09-10T12:21:47.801Z,28.28
2018-09-10T12:22:47.806Z,28.41
2018-09-10T12:23:47.825Z,28.66
2018-09-10T12:24:47.831Z,28.75
2018-09-10T12:25:47.843Z,28.69
2018-09-10T12:26:47.844Z,28.51
2018-09-10T12:27:47.858Z,28.56
2018-09-10T12:28:47.870Z,28.26
2018-09-10T12:29:47.873Z,28.22
2018-09-10T12:30:47.880Z,28.46
2018-09-10T12:31:47.886Z,28.29
2018-09-10T12:32:47.894Z,28.19
2018-09-10T12:33:47.902Z,28.13
2018-09-10T12:34:47.907Z,28.10
2018-09-10T12:35:47.913Z,28.16
2018-09-10T12:36:47.927Z,28.44
2018-09-10T12:37:47.930Z,28.58
2018-09-10T12:38:47.939Z,28.51
2018-09-10T12:39:48.028Z,28.47
2018-09-10T12:40:47.949Z,28.65
2018-09-10T12:41:47.955Z,28.56
2018-09-10T12:42:47.959Z,28.70
2018-09-10T12:43:47.968Z,29.00
2018-09-10T12:44:47.979Z,28.88
2018-09-10T12:45:47.982Z,29.03
2018-09-10T12:46:47.990Z,28.72
2018-09-10T12:47:47.993Z,28.32
2018-09-10T12:48:47.997Z,28.28
2018-09-10T12:49:48.011Z,28.32
2018-09-10T12:50:48.012Z,28.35
2018-09-10T12:51:48.021Z,28.38
2018-09-10T12:52:48.029Z,28.75
2018-09-10T12:53:48.034Z,28.73
2018-09-10T12:54:48.038Z,28.84
2018-09-10T12:55:48.041Z,28.69
2018-09-10T12:56:48.050Z,28.65
2018-09-10T12:57:48.056Z,28.62
2018-09-10T12:58:48.125Z,28.60
2018-09-10T12:59:48.070Z,28.31
2018-09-10T13:00:48.076Z,28.35
2018-09-10T13:01:48.080Z,28.25
2018-09-10T13:02:48.080Z,28.44
2018-09-10T13:03:48.092Z,28.56
2018-09-10T13:04:48.096Z,28.66
2018-09-10T13:05:48.101Z,28.54
2018-09-10T13:06:48.102Z,28.40
2018-09-10T13:07:48.106Z,28.29
2018-09-10T13:08:48.114Z,28.21
2018-09-10T13:09:48.121Z,28.31
2018-09-10T13:10:48.202Z,27.99
2018-09-10T13:11:48.121Z,27.89
2018-09-10T13:12:48.134Z,27.79
2018-09-10T13:13:48.139Z,27.79
2018-09-10T13:14:48.139Z,27.64
2018-09-10T13:15:48.155Z,27.70
2018-09-10T13:16:48.157Z,27.59
2018-09-10T13:17:48.166Z,27.47
2018-09-10T13:18:48.164Z,27.54
2018-09-10T13:19:48.171Z,27.51
2018-09-10T13:20:48.181Z,27.53
2018-09-10T13:21:48.181Z,27.66
2018-09-10T13:22:48.188Z,27.70
2018-09-10T13:23:48.196Z,27.89
2018-09-10T13:24:48.193Z,27.92
2018-09-10T13:25:48.237Z,27.89
2018-09-10T13:26:48.205Z,27.53
2018-09-10T13:27:48.207Z,27.46
2018-09-10T13:28:48.210Z,27.28
2018-09-10T13:29:48.241Z,27.33
2018-09-10T13:30:48.225Z,27.38
2018-09-10T13:31:48.227Z,27.59
2018-09-10T13:32:48.234Z,27.67
2018-09-10T13:33:48.233Z,27.61
2018-09-10T13:34:48.246Z,27.91
2018-09-10T13:35:48.242Z,27.69
2018-09-10T13:36:48.264Z,27.96
2018-09-10T13:37:48.255Z,27.89
2018-09-10T13:38:48.257Z,27.95
2018-09-10T13:39:48.261Z,27.91
2018-09-10T13:40:48.265Z,28.04
2018-09-10T13:41:48.273Z,28.03
2018-09-10T13:42:48.276Z,27.99
2018-09-10T13:43:48.277Z,27.88
2018-09-10T13:44:48.283Z,27.85
2018-09-10T13:45:48.287Z,27.89
2018-09-10T13:46:48.289Z,27.88
2018-09-10T13:47:48.295Z,27.96
2018-09-10T13:48:48.304Z,27.94
2018-09-10T13:49:48.304Z,27.71
2018-09-10T13:50:48.309Z,27.74
2018-09-10T13:51:48.311Z,27.66
2018-09-10T13:52:48.319Z,27.46
2018-09-10T13:53:48.343Z,27.16
2018-09-10T13:54:48.324Z,27.05
2018-09-10T13:55:48.330Z,27.11
2018-09-10T13:56:48.345Z,27.28
2018-09-10T13:57:48.339Z,27.39
2018-09-10T13:58:48.340Z,27.36
2018-09-10T13:59:48.394Z,27.54
2018-09-10T14:00:48.355Z,27.57